sensor_id;sensor_type;location;lat;lon;timestamp;pressure;altitude;pressure_sealevel;temperature;humidity
79230;BME280;68663;49.122;17.544;2024-01-30T00:02:12;101389.09;;;24.45;42.85
79230;BME280;68663;49.122;17.544;2024-01-30T00:04:37;101389.41;;;24.40;42.29
79230;BME280;68663;49.122;17.544;2024-01-30T00:07:03;101394.25;;;24.40;43.07
79230;BME280;68663;49.122;17.544;2024-01-30T00:09:28;101386.16;;;24.38;42.85
79230;BME280;68663;49.122;17.544;2024-01-30T00:11:54;101391.00;;;24.38;42.79
79230;BME280;68663;49.122;17.544;2024-01-30T00:14:19;101384.53;;;24.37;42.97
79230;BME280;68663;49.122;17.544;2024-01-30T00:16:45;101386.97;;;24.39;42.69
79230;BME280;68663;49.122;17.544;2024-01-30T00:19:10;101395.88;;;24.41;42.87
79230;BME280;68663;49.122;17.544;2024-01-30T00:21:36;101388.66;;;24.43;42.75
79230;BME280;68663;49.122;17.544;2024-01-30T00:24:01;101391.91;;;24.45;42.60
79230;BME280;68663;49.122;17.544;2024-01-30T00:26:27;101382.22;;;24.47;42.72
79230;BME280;68663;49.122;17.544;2024-01-30T00:28:52;101382.66;;;24.49;42.69
79230;BME280;68663;49.122;17.544;2024-01-30T00:31:18;101381.47;;;24.50;42.65
79230;BME280;68663;49.122;17.544;2024-01-30T00:33:43;101377.44;;;24.51;42.89
79230;BME280;68663;49.122;17.544;2024-01-30T00:36:09;101379.88;;;24.52;42.79
79230;BME280;68663;49.122;17.544;2024-01-30T00:38:35;101388.34;;;24.52;42.52
79230;BME280;68663;49.122;17.544;2024-01-30T00:41:01;101388.34;;;24.52;42.26
79230;BME280;68663;49.122;17.544;2024-01-30T00:43:27;101392.78;;;24.50;42.45
79230;BME280;68663;49.122;17.544;2024-01-30T00:45:53;101398.38;;;24.46;42.60
79230;BME280;68663;49.122;17.544;2024-01-30T00:48:19;101395.94;;;24.44;42.41
79230;BME280;68663;49.122;17.544;2024-01-30T00:50:45;101390.28;;;24.44;42.16
79230;BME280;68663;49.122;17.544;2024-01-30T00:53:10;101388.66;;;24.43;42.64
79230;BME280;68663;49.122;17.544;2024-01-30T00:55:36;101384.63;;;24.44;42.57
79230;BME280;68663;49.122;17.544;2024-01-30T00:58:01;101387.88;;;24.47;42.59
79230;BME280;68663;49.122;17.544;2024-01-30T01:00:28;101393.97;;;24.49;42.70
79230;BME280;68663;49.122;17.544;2024-01-30T01:02:58;101387.13;;;24.50;42.63
79230;BME280;68663;49.122;17.544;2024-01-30T01:05:23;101393.63;;;24.54;42.60
79230;BME280;68663;49.122;17.544;2024-01-30T01:07:49;101387.16;;;24.53;42.43
79230;BME280;68663;49.122;17.544;2024-01-30T01:10:16;101389.59;;;24.55;42.18
79230;BME280;68663;49.122;17.544;2024-01-30T01:12:42;101384.75;;;24.55;42.50
79230;BME280;68663;49.122;17.544;2024-01-30T01:15:08;101383.94;;;24.55;42.33
79230;BME280;68663;49.122;17.544;2024-01-30T01:17:35;101385.19;;;24.57;42.43
79230;BME280;68663;49.122;17.544;2024-01-30T01:20:01;101380.34;;;24.58;42.22
79230;BME280;68663;49.122;17.544;2024-01-30T01:22:27;101377.13;;;24.59;42.37
79230;BME280;68663;49.122;17.544;2024-01-30T01:24:52;101372.69;;;24.58;42.50
79230;BME280;68663;49.122;17.544;2024-01-30T01:27:18;101369.81;;;24.55;42.09
79230;BME280;68663;49.122;17.544;2024-01-30T01:29:44;101377.44;;;24.51;41.98
79230;BME280;68663;49.122;17.544;2024-01-30T01:32:10;101372.97;;;24.50;42.25
79230;BME280;68663;49.122;17.544;2024-01-30T01:34:36;101372.53;;;24.48;42.09
79230;BME280;68663;49.122;17.544;2024-01-30T01:37:01;101366.06;;;24.47;42.31
79230;BME280;68663;49.122;17.544;2024-01-30T01:39:27;101366.88;;;24.48;42.21
79230;BME280;68663;49.122;17.544;2024-01-30T01:41:52;101374.19;;;24.49;42.41
79230;BME280;68663;49.122;17.544;2024-01-30T01:44:18;101363.28;;;24.51;42.44
79230;BME280;68663;49.122;17.544;2024-01-30T01:46:44;101363.72;;;24.53;42.00
79230;BME280;68663;49.122;17.544;2024-01-30T01:49:10;101357.25;;;24.52;42.44
79230;BME280;68663;49.122;17.544;2024-01-30T01:51:36;101356.44;;;24.52;41.91
79230;BME280;68663;49.122;17.544;2024-01-30T01:54:04;101365.34;;;24.54;41.96
79230;BME280;68663;49.122;17.544;2024-01-30T01:56:31;101361.31;;;24.55;42.17
79230;BME280;68663;49.122;17.544;2024-01-30T01:59:00;101361.75;;;24.57;42.04
79230;BME280;68663;49.122;17.544;2024-01-30T02:01:31;101358.94;;;24.57;42.19
79230;BME280;68663;49.122;17.544;2024-01-30T02:03:58;101357.28;;;24.56;42.02
79230;BME280;68663;49.122;17.544;2024-01-30T02:06:24;101360.47;;;24.51;42.11
79230;BME280;68663;49.122;17.544;2024-01-30T02:08:49;101359.22;;;24.48;42.07
79230;BME280;68663;49.122;17.544;2024-01-30T02:11:15;101358.41;;;24.48;41.99
79230;BME280;68663;49.122;17.544;2024-01-30T02:13:42;101361.25;;;24.48;42.07
79230;BME280;68663;49.122;17.544;2024-01-30T02:16:07;101356.34;;;24.44;42.33
79230;BME280;68663;49.122;17.544;2024-01-30T02:18:33;101354.34;;;24.45;42.18
79230;BME280;68663;49.122;17.544;2024-01-30T02:23:27;101346.72;;;24.49;41.98
79230;BME280;68663;49.122;17.544;2024-01-30T02:25:52;101346.72;;;24.49;42.21
79230;BME280;68663;49.122;17.544;2024-01-30T02:28:18;101343.06;;;24.49;42.07
79230;BME280;68663;49.122;17.544;2024-01-30T02:30:44;101353.56;;;24.48;42.09
79230;BME280;68663;49.122;17.544;2024-01-30T02:33:10;101349.94;;;24.48;42.20
79230;BME280;68663;49.122;17.544;2024-01-30T02:35:35;101349.09;;;24.47;42.18
79230;BME280;68663;49.122;17.544;2024-01-30T02:38:01;101341.44;;;24.48;41.92
79230;BME280;68663;49.122;17.544;2024-01-30T02:40:26;101351.56;;;24.49;42.15
79230;BME280;68663;49.122;17.544;2024-01-30T02:42:52;101351.97;;;24.51;41.87
79230;BME280;68663;49.122;17.544;2024-01-30T02:45:17;101352.41;;;24.53;42.05
79230;BME280;68663;49.122;17.544;2024-01-30T02:47:43;101354.84;;;24.54;41.95
79230;BME280;68663;49.122;17.544;2024-01-30T02:50:08;101350.81;;;24.55;42.03
79230;BME280;68663;49.122;17.544;2024-01-30T02:52:34;101349.63;;;24.56;41.80
79230;BME280;68663;49.122;17.544;2024-01-30T02:55:00;101350.44;;;24.57;42.12
79230;BME280;68663;49.122;17.544;2024-01-30T02:57:25;101350.88;;;24.59;41.77
79230;BME280;68663;49.122;17.544;2024-01-30T02:59:51;101339.56;;;24.59;41.87
79230;BME280;68663;49.122;17.544;2024-01-30T03:02:17;101340.75;;;24.58;41.93
79230;BME280;68663;49.122;17.544;2024-01-30T03:04:42;101338.34;;;24.60;41.90
79230;BME280;68663;49.122;17.544;2024-01-30T03:07:08;101329.88;;;24.60;41.92
79230;BME280;68663;49.122;17.544;2024-01-30T03:09:33;101333.91;;;24.59;41.83
79230;BME280;68663;49.122;17.544;2024-01-30T03:11:59;101333.09;;;24.58;41.78
79230;BME280;68663;49.122;17.544;2024-01-30T03:14:24;101339.56;;;24.59;41.98
79230;BME280;68663;49.122;17.544;2024-01-30T03:16:50;101335.09;;;24.58;41.77
79230;BME280;68663;49.122;17.544;2024-01-30T03:19:15;101331.47;;;24.57;41.88
79230;BME280;68663;49.122;17.544;2024-01-30T03:21:40;101333.91;;;24.59;41.91
79230;BME280;68663;49.122;17.544;2024-01-30T03:24:06;101321.34;;;24.56;41.77
79230;BME280;68663;49.122;17.544;2024-01-30T03:26:31;101322.16;;;24.57;42.00
79230;BME280;68663;49.122;17.544;2024-01-30T03:28:57;101332.66;;;24.56;41.71
79230;BME280;68663;49.122;17.544;2024-01-30T03:31:22;101329.00;;;24.56;41.87
79230;BME280;68663;49.122;17.544;2024-01-30T03:33:48;101325.00;;;24.57;41.87
79230;BME280;68663;49.122;17.544;2024-01-30T03:36:15;101323.38;;;24.56;41.82
79230;BME280;68663;49.122;17.544;2024-01-30T03:38:40;101317.72;;;24.56;42.16
79230;BME280;68663;49.122;17.544;2024-01-30T03:41:10;101316.88;;;24.55;41.89
79230;BME280;68663;49.122;17.544;2024-01-30T03:43:36;101322.53;;;24.55;41.87
79230;BME280;68663;49.122;17.544;2024-01-30T03:46:02;101316.06;;;24.55;41.94
79230;BME280;68663;49.122;17.544;2024-01-30T03:48:29;101312.06;;;24.56;41.79
79230;BME280;68663;49.122;17.544;2024-01-30T03:50:54;101313.25;;;24.55;41.66
79230;BME280;68663;49.122;17.544;2024-01-30T03:53:20;101313.25;;;24.55;41.83
79230;BME280;68663;49.122;17.544;2024-01-30T03:55:45;101314.88;;;24.56;41.84
79230;BME280;68663;49.122;17.544;2024-01-30T03:58:11;101309.59;;;24.54;41.64
79230;BME280;68663;49.122;17.544;2024-01-30T04:00:36;101314.44;;;24.54;41.75
79230;BME280;68663;49.122;17.544;2024-01-30T04:03:02;101318.91;;;24.55;41.69
79230;BME280;68663;49.122;17.544;2024-01-30T04:05:28;101320.91;;;24.54;41.80
79230;BME280;68663;49.122;17.544;2024-01-30T04:07:53;101326.56;;;24.54;41.85
79230;BME280;68663;49.122;17.544;2024-01-30T04:10:19;101320.91;;;24.54;41.81
79230;BME280;68663;49.122;17.544;2024-01-30T04:12:44;101312.81;;;24.53;41.33
79230;BME280;68663;49.122;17.544;2024-01-30T04:15:10;101309.56;;;24.51;41.57
79230;BME280;68663;49.122;17.544;2024-01-30T04:17:35;101320.44;;;24.49;41.75
79230;BME280;68663;49.122;17.544;2024-01-30T04:20:01;101308.31;;;24.48;41.77
79230;BME280;68663;49.122;17.544;2024-01-30T04:22:26;101302.25;;;24.46;41.94
79230;BME280;68663;49.122;17.544;2024-01-30T04:24:52;101307.09;;;24.45;42.08
79230;BME280;68663;49.122;17.544;2024-01-30T04:27:17;101304.25;;;24.45;41.74
79230;BME280;68663;49.122;17.544;2024-01-30T04:29:42;101316.00;;;24.48;41.71
79230;BME280;68663;49.122;17.544;2024-01-30T04:32:09;101305.94;;;24.50;41.92
79230;BME280;68663;49.122;17.544;2024-01-30T04:34:36;101303.91;;;24.51;41.90
79230;BME280;68663;49.122;17.544;2024-01-30T04:37:01;101300.69;;;24.52;42.02
79230;BME280;68663;49.122;17.544;2024-01-30T04:39:27;101309.59;;;24.54;41.94
79230;BME280;68663;49.122;17.544;2024-01-30T04:41:52;101308.84;;;24.57;41.81
79230;BME280;68663;49.122;17.544;2024-01-30T04:44:18;101310.47;;;24.58;41.95
79230;BME280;68663;49.122;17.544;2024-01-30T04:46:43;101308.44;;;24.59;42.41
79230;BME280;68663;49.122;17.544;2024-01-30T04:49:08;101306.81;;;24.58;42.30
79230;BME280;68663;49.122;17.544;2024-01-30T04:51:34;101309.22;;;24.56;42.68
79230;BME280;68663;49.122;17.544;2024-01-30T04:53:59;101307.16;;;24.53;42.54
79230;BME280;68663;49.122;17.544;2024-01-30T04:56:24;101305.94;;;24.50;42.56
79230;BME280;68663;49.122;17.544;2024-01-30T04:58:50;101309.56;;;24.51;42.80
79230;BME280;68663;49.122;17.544;2024-01-30T05:01:16;101307.94;;;24.50;42.31
79230;BME280;68663;49.122;17.544;2024-01-30T05:03:41;101318.44;;;24.49;42.37
79230;BME280;68663;49.122;17.544;2024-01-30T05:06:07;101317.28;;;24.54;42.30
79230;BME280;68663;49.122;17.544;2024-01-30T05:08:32;101310.03;;;24.56;42.21
79230;BME280;68663;49.122;17.544;2024-01-30T05:11:01;101311.66;;;24.57;42.41
79230;BME280;68663;49.122;17.544;2024-01-30T05:13:30;101305.56;;;24.55;42.00
79230;BME280;68663;49.122;17.544;2024-01-30T05:15:55;101312.00;;;24.52;42.39
79230;BME280;68663;49.122;17.544;2024-01-30T05:18:20;101312.41;;;24.51;42.87
79230;BME280;68663;49.122;17.544;2024-01-30T05:20:46;101307.94;;;24.50;43.17
79230;BME280;68663;49.122;17.544;2024-01-30T05:23:11;101313.22;;;24.51;43.37
79230;BME280;68663;49.122;17.544;2024-01-30T05:25:37;101311.59;;;24.50;43.17
79230;BME280;68663;49.122;17.544;2024-01-30T05:28:02;101307.56;;;24.51;43.37
79230;BME280;68663;49.122;17.544;2024-01-30T05:30:28;101312.06;;;24.56;43.47
79230;BME280;68663;49.122;17.544;2024-01-30T05:32:53;101315.31;;;24.58;42.94
79230;BME280;68663;49.122;17.544;2024-01-30T05:35:19;101320.16;;;24.57;43.11
79230;BME280;68663;49.122;17.544;2024-01-30T05:37:47;101315.25;;;24.54;43.00
79230;BME280;68663;49.122;17.544;2024-01-30T05:40:13;101320.88;;;24.51;42.76
79230;BME280;68663;49.122;17.544;2024-01-30T05:42:38;101325.72;;;24.50;42.77
79230;BME280;68663;49.122;17.544;2024-01-30T05:45:04;101312.78;;;24.49;42.46
79230;BME280;68663;49.122;17.544;2024-01-30T05:47:30;101324.09;;;24.49;42.47
79230;BME280;68663;49.122;17.544;2024-01-30T05:49:56;101328.94;;;24.49;42.53
79230;BME280;68663;49.122;17.544;2024-01-30T05:52:21;101324.91;;;24.50;42.22
79230;BME280;68663;49.122;17.544;2024-01-30T05:54:47;101319.28;;;24.53;42.12
79230;BME280;68663;49.122;17.544;2024-01-30T05:57:12;101320.91;;;24.54;42.01
79230;BME280;68663;49.122;17.544;2024-01-30T05:59:37;101317.72;;;24.56;42.03
79230;BME280;68663;49.122;17.544;2024-01-30T06:02:03;101322.50;;;24.52;41.79
79230;BME280;68663;49.122;17.544;2024-01-30T06:04:29;101325.72;;;24.50;41.88
79230;BME280;68663;49.122;17.544;2024-01-30T06:06:55;101320.03;;;24.47;41.96
79230;BME280;68663;49.122;17.544;2024-01-30T06:09:21;101315.56;;;24.45;42.11
79230;BME280;68663;49.122;17.544;2024-01-30T06:11:46;101324.44;;;24.44;42.16
79230;BME280;68663;49.122;17.544;2024-01-30T06:14:11;101315.94;;;24.44;42.24
79230;BME280;68663;49.122;17.544;2024-01-30T06:16:37;101324.81;;;24.42;41.95
79230;BME280;68663;49.122;17.544;2024-01-30T06:19:02;101319.22;;;24.46;42.31
79230;BME280;68663;49.122;17.544;2024-01-30T06:21:28;101324.91;;;24.50;41.98
79230;BME280;68663;49.122;17.544;2024-01-30T06:23:53;101316.84;;;24.52;41.83
79230;BME280;68663;49.122;17.544;2024-01-30T06:26:18;101320.09;;;24.54;42.09
79230;BME280;68663;49.122;17.544;2024-01-30T06:28:44;101324.13;;;24.53;41.99
79230;BME280;68663;49.122;17.544;2024-01-30T06:31:09;101328.16;;;24.52;42.04
79230;BME280;68663;49.122;17.544;2024-01-30T06:33:35;101328.50;;;24.47;41.86
79230;BME280;68663;49.122;17.544;2024-01-30T06:36:00;101323.22;;;24.45;42.21
79230;BME280;68663;49.122;17.544;2024-01-30T06:38:25;101332.09;;;24.43;42.20
79230;BME280;68663;49.122;17.544;2024-01-30T06:40:51;101326.03;;;24.41;42.09
79230;BME280;68663;49.122;17.544;2024-01-30T06:43:16;101328.03;;;24.41;41.86
79230;BME280;68663;49.122;17.544;2024-01-30T06:45:42;101329.66;;;24.42;42.14
79230;BME280;68663;49.122;17.544;2024-01-30T06:48:08;101331.34;;;24.47;41.70
79230;BME280;68663;49.122;17.544;2024-01-30T06:50:33;101330.56;;;24.50;41.91
79230;BME280;68663;49.122;17.544;2024-01-30T06:52:59;101333.00;;;24.51;41.60
79230;BME280;68663;49.122;17.544;2024-01-30T06:55:24;101332.63;;;24.53;41.87
79230;BME280;68663;49.122;17.544;2024-01-30T06:57:49;101344.34;;;24.55;41.62
79230;BME280;68663;49.122;17.544;2024-01-30T07:00:15;101339.13;;;24.57;41.70
79230;BME280;68663;49.122;17.544;2024-01-30T07:02:41;101346.84;;;24.60;41.63
79230;BME280;68663;49.122;17.544;2024-01-30T07:05:07;101338.78;;;24.62;41.41
79230;BME280;68663;49.122;17.544;2024-01-30T07:07:32;101334.75;;;24.63;41.42
79230;BME280;68663;49.122;17.544;2024-01-30T07:09:58;101341.22;;;24.63;41.37
79230;BME280;68663;49.122;17.544;2024-01-30T07:12:23;101331.50;;;24.61;41.58
79230;BME280;68663;49.122;17.544;2024-01-30T07:14:52;101337.94;;;24.58;41.51
79230;BME280;68663;49.122;17.544;2024-01-30T07:17:17;101337.13;;;24.57;41.33
79230;BME280;68663;49.122;17.544;2024-01-30T07:19:43;101346.41;;;24.58;41.50
79230;BME280;68663;49.122;17.544;2024-01-30T07:22:08;101343.16;;;24.56;41.66
79230;BME280;68663;49.122;17.544;2024-01-30T07:24:34;101336.31;;;24.57;41.61
79230;BME280;68663;49.122;17.544;2024-01-30T07:26:59;101337.53;;;24.59;41.41
79230;BME280;68663;49.122;17.544;2024-01-30T07:29:25;101346.06;;;24.63;41.33
79230;BME280;68663;49.122;17.544;2024-01-30T07:31:50;101352.56;;;24.67;41.06
79230;BME280;68663;49.122;17.544;2024-01-30T07:34:16;101355.84;;;24.69;41.04
79230;BME280;68663;49.122;17.544;2024-01-30T07:36:41;101351.34;;;24.64;41.38
79230;BME280;68663;49.122;17.544;2024-01-30T07:39:07;101343.63;;;24.61;41.50
79230;BME280;68663;49.122;17.544;2024-01-30T07:41:32;101348.47;;;24.61;41.29
79230;BME280;68663;49.122;17.544;2024-01-30T07:43:58;101349.28;;;24.61;41.06
79230;BME280;68663;49.122;17.544;2024-01-30T07:46:23;101348.47;;;24.61;41.38
79230;BME280;68663;49.122;17.544;2024-01-30T07:48:48;101349.66;;;24.60;41.31
79230;BME280;68663;49.122;17.544;2024-01-30T07:51:14;101354.13;;;24.61;41.12
79230;BME280;68663;49.122;17.544;2024-01-30T07:53:40;101346.88;;;24.63;41.28
79230;BME280;68663;49.122;17.544;2024-01-30T07:56:07;101346.50;;;24.65;40.96
79230;BME280;68663;49.122;17.544;2024-01-30T07:58:32;101348.94;;;24.66;41.08
79230;BME280;68663;49.122;17.544;2024-01-30T08:00:58;101349.75;;;24.67;40.99
79230;BME280;68663;49.122;17.544;2024-01-30T08:03:24;101342.03;;;24.64;41.31
79230;BME280;68663;49.122;17.544;2024-01-30T08:05:49;101347.31;;;24.65;41.24
79230;BME280;68663;49.122;17.544;2024-01-30T08:08:15;101348.13;;;24.66;41.33
79230;BME280;68663;49.122;17.544;2024-01-30T08:10:40;101344.47;;;24.65;41.35
79230;BME280;68663;49.122;17.544;2024-01-30T08:13:06;101346.50;;;24.65;41.25
79230;BME280;68663;49.122;17.544;2024-01-30T08:15:31;101354.97;;;24.65;41.14
79230;BME280;68663;49.122;17.544;2024-01-30T08:17:57;101352.56;;;24.67;41.33
79230;BME280;68663;49.122;17.544;2024-01-30T08:20:24;101359.47;;;24.69;41.01
79230;BME280;68663;49.122;17.544;2024-01-30T08:22:50;101355.44;;;24.70;41.17
79230;BME280;68663;49.122;17.544;2024-01-30T08:25:16;101351.03;;;24.73;41.15
79230;BME280;68663;49.122;17.544;2024-01-30T08:27:41;101353.47;;;24.74;41.08
79230;BME280;68663;49.122;17.544;2024-01-30T08:30:07;101354.28;;;24.75;41.01
79230;BME280;68663;49.122;17.544;2024-01-30T08:32:33;101351.88;;;24.77;40.95
79230;BME280;68663;49.122;17.544;2024-01-30T08:34:59;101356.34;;;24.78;40.85
79230;BME280;68663;49.122;17.544;2024-01-30T08:37:24;101367.28;;;24.80;40.94
79230;BME280;68663;49.122;17.544;2024-01-30T08:39:50;101348.28;;;24.80;40.85
79230;BME280;68663;49.122;17.544;2024-01-30T08:42:15;101354.38;;;24.82;40.83
79230;BME280;68663;49.122;17.544;2024-01-30T08:44:43;101352.69;;;24.77;40.75
79230;BME280;68663;49.122;17.544;2024-01-30T08:47:09;101356.34;;;24.78;40.54
79230;BME280;68663;49.122;17.544;2024-01-30T08:49:34;101359.13;;;24.74;40.66
79230;BME280;68663;49.122;17.544;2024-01-30T08:52:00;101363.97;;;24.74;40.69
79230;BME280;68663;49.122;17.544;2024-01-30T08:54:25;101356.25;;;24.71;41.16
79230;BME280;68663;49.122;17.544;2024-01-30T08:56:50;101360.28;;;24.70;40.81
79230;BME280;68663;49.122;17.544;2024-01-30T08:59:18;101367.56;;;24.71;40.83
79230;BME280;68663;49.122;17.544;2024-01-30T09:01:44;101363.97;;;24.74;40.85
79230;BME280;68663;49.122;17.544;2024-01-30T09:04:09;101360.00;;;24.78;40.84
79230;BME280;68663;49.122;17.544;2024-01-30T09:06:35;101366.47;;;24.79;40.71
79230;BME280;68663;49.122;17.544;2024-01-30T09:09:00;101359.53;;;24.73;40.57
79230;BME280;68663;49.122;17.544;2024-01-30T09:11:26;101363.16;;;24.73;40.58
79230;BME280;68663;49.122;17.544;2024-01-30T09:13:51;101361.16;;;24.74;40.78
79230;BME280;68663;49.122;17.544;2024-01-30T09:16:17;101357.50;;;24.73;40.69
79230;BME280;68663;49.122;17.544;2024-01-30T09:18:42;101356.69;;;24.73;40.83
79230;BME280;68663;49.122;17.544;2024-01-30T09:21:07;101359.13;;;24.74;40.96
79230;BME280;68663;49.122;17.544;2024-01-30T09:23:33;101353.50;;;24.78;40.71
79230;BME280;68663;49.122;17.544;2024-01-30T09:25:59;101347.44;;;24.76;40.69
79230;BME280;68663;49.122;17.544;2024-01-30T09:28:24;101350.25;;;24.76;40.60
79230;BME280;68663;49.122;17.544;2024-01-30T09:30:50;101352.28;;;24.75;40.70
79230;BME280;68663;49.122;17.544;2024-01-30T09:33:15;101351.47;;;24.75;40.61
79230;BME280;68663;49.122;17.544;2024-01-30T09:35:41;101351.84;;;24.73;40.45
79230;BME280;68663;49.122;17.544;2024-01-30T09:38:06;101353.47;;;24.74;40.87
79230;BME280;68663;49.122;17.544;2024-01-30T09:40:32;101359.94;;;24.75;40.77
79230;BME280;68663;49.122;17.544;2024-01-30T09:42:58;101352.69;;;24.77;40.61
79230;BME280;68663;49.122;17.544;2024-01-30T09:45:25;101351.09;;;24.80;40.70
79230;BME280;68663;49.122;17.544;2024-01-30T09:47:51;101353.56;;;24.82;40.44
79230;BME280;68663;49.122;17.544;2024-01-30T09:50:18;101340.22;;;24.82;40.63
79230;BME280;68663;49.122;17.544;2024-01-30T09:52:47;101350.34;;;24.83;40.74
79230;BME280;68663;49.122;17.544;2024-01-30T09:55:13;101346.66;;;24.79;40.31
79230;BME280;68663;49.122;17.544;2024-01-30T09:57:39;101345.03;;;24.78;40.61
79230;BME280;68663;49.122;17.544;2024-01-30T10:00:05;101343.81;;;24.79;40.73
79230;BME280;68663;49.122;17.544;2024-01-30T10:02:35;101343.81;;;24.79;40.67
79230;BME280;68663;49.122;17.544;2024-01-30T10:05:01;101338.56;;;24.77;40.61
79230;BME280;68663;49.122;17.544;2024-01-30T10:07:26;101342.19;;;24.78;40.45
79230;BME280;68663;49.122;17.544;2024-01-30T10:09:53;101342.63;;;24.80;40.57
79230;BME280;68663;49.122;17.544;2024-01-30T10:12:18;101338.22;;;24.83;40.76
79230;BME280;68663;49.122;17.544;2024-01-30T10:14:44;101339.84;;;24.84;40.68
79230;BME280;68663;49.122;17.544;2024-01-30T10:17:10;101338.97;;;24.80;39.74
79230;BME280;68663;49.122;17.544;2024-01-30T10:19:39;101333.22;;;24.09;31.02
79230;BME280;68663;49.122;17.544;2024-01-30T10:22:05;101344.00;;;23.73;28.09
79230;BME280;68663;49.122;17.544;2024-01-30T10:24:31;101333.09;;;23.49;26.98
79230;BME280;68663;49.122;17.544;2024-01-30T10:26:58;101333.22;;;23.10;26.21
79230;BME280;68663;49.122;17.544;2024-01-30T10:29:24;101329.69;;;23.40;27.87
79230;BME280;68663;49.122;17.544;2024-01-30T10:32:03;101332.59;;;23.66;29.17
79230;BME280;68663;49.122;17.544;2024-01-30T10:34:29;101326.34;;;23.80;29.51
79230;BME280;68663;49.122;17.544;2024-01-30T10:39:28;101314.53;;;24.01;31.29
79230;BME280;68663;49.122;17.544;2024-01-30T10:41:56;101313.44;;;24.09;31.62
79230;BME280;68663;49.122;17.544;2024-01-30T10:44:26;101315.59;;;24.19;31.78
79230;BME280;68663;49.122;17.544;2024-01-30T10:47:00;101301.09;;;24.24;32.67
79230;BME280;68663;49.122;17.544;2024-01-30T10:49:28;101300.81;;;24.29;33.44
79230;BME280;68663;49.122;17.544;2024-01-30T10:51:54;101295.22;;;24.33;33.66
79230;BME280;68663;49.122;17.544;2024-01-30T10:54:21;101291.22;;;24.37;34.35
79230;BME280;68663;49.122;17.544;2024-01-30T10:56:48;101290.06;;;24.42;34.56
79230;BME280;68663;49.122;17.544;2024-01-30T10:59:14;101290.13;;;24.45;34.54
79230;BME280;68663;49.122;17.544;2024-01-30T11:01:40;101282.50;;;24.50;35.05
79230;BME280;68663;49.122;17.544;2024-01-30T11:04:06;101280.50;;;24.54;34.77
79230;BME280;68663;49.122;17.544;2024-01-30T11:06:40;101278.53;;;24.58;35.37
79230;BME280;68663;49.122;17.544;2024-01-30T11:09:10;101281.41;;;24.61;35.10
79230;BME280;68663;49.122;17.544;2024-01-30T11:11:57;101275.78;;;24.65;35.38
79230;BME280;68663;49.122;17.544;2024-01-30T11:14:26;101275.00;;;24.68;35.35
79230;BME280;68663;49.122;17.544;2024-01-30T11:16:52;101270.59;;;24.70;35.73
79230;BME280;68663;49.122;17.544;2024-01-30T11:19:24;101264.13;;;24.70;35.80
79230;BME280;68663;49.122;17.544;2024-01-30T11:21:53;101256.84;;;24.69;35.85
79230;BME280;68663;49.122;17.544;2024-01-30T11:24:20;101246.72;;;24.68;36.03
79230;BME280;68663;49.122;17.544;2024-01-30T11:26:48;101250.75;;;24.67;36.32
79230;BME280;68663;49.122;17.544;2024-01-30T11:29:15;101245.09;;;24.67;36.29
79230;BME280;68663;49.122;17.544;2024-01-30T11:31:51;101249.13;;;24.66;36.08
79230;BME280;68663;49.122;17.544;2024-01-30T11:34:18;101247.94;;;24.67;36.00
79230;BME280;68663;49.122;17.544;2024-01-30T11:36:44;101241.09;;;24.71;36.29
79230;BME280;68663;49.122;17.544;2024-01-30T11:39:15;101249.19;;;24.73;36.42
79230;BME280;68663;49.122;17.544;2024-01-30T11:41:43;101234.66;;;24.74;36.29
79230;BME280;68663;49.122;17.544;2024-01-30T11:44:10;101239.50;;;24.74;36.50
79230;BME280;68663;49.122;17.544;2024-01-30T11:46:36;101243.97;;;24.75;36.59
79230;BME280;68663;49.122;17.544;2024-01-30T11:49:01;101240.31;;;24.74;36.42
79230;BME280;68663;49.122;17.544;2024-01-30T11:51:27;101229.81;;;24.75;36.21
79230;BME280;68663;49.122;17.544;2024-01-30T11:53:55;101222.97;;;24.76;36.28
79230;BME280;68663;49.122;17.544;2024-01-30T11:56:23;101229.84;;;24.78;36.73
79230;BME280;68663;49.122;17.544;2024-01-30T11:58:49;101234.69;;;24.78;36.80
79230;BME280;68663;49.122;17.544;2024-01-30T12:01:16;101225.00;;;24.79;36.75
79230;BME280;68663;49.122;17.544;2024-01-30T12:03:42;101221.78;;;24.81;36.75
79230;BME280;68663;49.122;17.544;2024-01-30T12:06:08;101214.13;;;24.81;36.84
79230;BME280;68663;49.122;17.544;2024-01-30T12:08:34;101215.75;;;24.82;36.91
79230;BME280;68663;49.122;17.544;2024-01-30T12:10:59;101216.16;;;24.84;36.99
79230;BME280;68663;49.122;17.544;2024-01-30T12:13:28;101223.06;;;24.87;36.82
79230;BME280;68663;49.122;17.544;2024-01-30T12:15:54;101221.03;;;24.87;36.51
79230;BME280;68663;49.122;17.544;2024-01-30T12:18:20;101217.81;;;24.89;36.23
79230;BME280;68663;49.122;17.544;2024-01-30T12:20:45;101208.94;;;24.90;35.82
79230;BME280;68663;49.122;17.544;2024-01-30T12:23:12;101213.38;;;24.91;35.92
79230;BME280;68663;49.122;17.544;2024-01-30T12:25:38;101217.84;;;24.92;36.15
79230;BME280;68663;49.122;17.544;2024-01-30T12:28:04;101212.97;;;24.89;35.91
79230;BME280;68663;49.122;17.544;2024-01-30T12:30:31;101214.56;;;24.87;35.59
79230;BME280;68663;49.122;17.544;2024-01-30T12:32:56;101213.34;;;24.84;35.75
79230;BME280;68663;49.122;17.544;2024-01-30T12:35:23;101220.19;;;24.83;35.60
79230;BME280;68663;49.122;17.544;2024-01-30T12:37:49;101209.66;;;24.80;35.53
79230;BME280;68663;49.122;17.544;2024-01-30T12:40:15;101207.22;;;24.78;35.71